Time;durP1;ratioP1;P1;durP2;ratioP2;P2;SDS_P1;SDS_P2;PMS_P1;PMS_P2;Temp;Humidity;BMP_temperature;BMP_pressure;BME280_temperature;BME280_humidity;BME280_pressure;Samples;Min_cycle;Max_cycle;Signal;HPM_P1;HPM_P2
2022/12/17 13:08:22;;;;;;;25.23;20.77;;;4.00;38.90;;;;;;10426668;28;20225;-72
2022/12/17 13:13:32;;;;;;;24.57;21.40;;;4.10;39.00;;;;;;10421198;28;20287;-71
2022/12/17 13:18:39;;;;;;;25.10;20.67;;;4.10;38.50;;;;;;10451013;28;20232;-71
2022/12/17 13:23:44;;;;;;;25.50;21.47;;;4.10;38.70;;;;;;10450841;28;20233;-71
2022/12/17 13:29:10;;;;;;;24.10;20.63;;;4.10;39.00;;;;;;10449587;28;20237;-71
2022/12/17 13:34:20;;;;;;;24.10;20.50;;;4.10;37.80;;;;;;10450470;28;20233;-71
2022/12/17 13:39:33;;;;;;;22.00;19.47;;;4.20;38.40;;;;;;10452733;28;20221;-71
2022/12/17 13:44:44;;;;;;;25.73;21.07;;;4.10;38.30;;;;;;10451975;28;20255;-71
2022/12/17 13:49:53;;;;;;;29.83;20.87;;;4.20;39.80;;;;;;10449159;28;20243;-71
2022/12/17 13:55:21;;;;;;;22.93;20.50;;;4.20;39.10;;;;;;10444716;28;20292;-71
2022/12/17 14:00:27;;;;;;;28.87;21.47;;;4.20;40.40;;;;;;10449118;28;20233;-71
2022/12/17 14:05:36;;;;;;;26.27;21.53;;;4.30;39.20;;;;;;10445158;28;20229;-70
2022/12/17 14:10:47;;;;;;;26.87;22.57;;;4.30;38.50;;;;;;10407839;28;20271;-71
2022/12/17 14:15:51;;;;;;;24.30;19.63;;;4.20;38.20;;;;;;10438807;28;20341;-70
2022/12/17 14:20:56;;;;;;;26.20;21.53;;;4.20;39.00;;;;;;10424500;28;20237;-70
2022/12/17 14:25:59;;;;;;;26.53;21.63;;;4.10;38.70;;;;;;10448522;28;20606;-70
2022/12/17 14:31:07;;;;;;;26.97;21.40;;;4.00;38.70;;;;;;10447110;28;20782;-70
2022/12/17 14:36:33;;;;;;;28.23;21.40;;;4.00;38.20;;;;;;10447982;28;20271;-71
2022/12/17 14:47:12;;;;;;;24.97;21.20;;;3.80;38.40;;;;;;10446431;28;20233;-71
2022/12/17 14:52:27;;;;;;;22.83;18.50;;;3.80;37.90;;;;;;10440481;28;20243;-70
2022/12/17 14:57:30;;;;;;;26.00;20.83;;;3.70;38.00;;;;;;10438146;28;20225;-71
2022/12/17 15:02:36;;;;;;;27.13;21.57;;;3.60;38.60;;;;;;10444174;28;20240;-70
2022/12/17 15:07:41;;;;;;;26.00;21.37;;;3.60;38.50;;;;;;10439556;28;20224;-71
2022/12/17 15:12:44;;;;;;;23.17;19.73;;;3.50;38.20;;;;;;10422445;28;20232;-70
2022/12/17 15:17:48;;;;;;;26.17;22.63;;;3.40;38.20;;;;;;10445070;28;20294;-71
2022/12/17 15:22:52;;;;;;;22.63;18.90;;;3.30;38.00;;;;;;10445194;28;20267;-71
2022/12/17 15:27:55;;;;;;;23.00;18.83;;;3.20;37.80;;;;;;10444061;28;20228;-71
2022/12/17 15:32:58;;;;;;;26.73;22.10;;;3.20;38.20;;;;;;10418534;28;20234;-71
2022/12/17 15:38:04;;;;;;;29.30;21.80;;;3.10;38.40;;;;;;10404592;28;20229;-72
2022/12/17 15:43:12;;;;;;;31.60;24.47;;;3.00;38.20;;;;;;10408916;28;20226;-71
2022/12/17 15:48:17;;;;;;;40.47;29.83;;;2.90;38.70;;;;;;10413457;28;20237;-71
2022/12/17 15:53:22;;;;;;;42.73;30.57;;;2.80;37.70;;;;;;10413223;28;20229;-71
2022/12/17 15:58:25;;;;;;;36.67;27.73;;;2.70;37.40;;;;;;10413533;28;20218;-71
2022/12/17 16:03:28;;;;;;;31.63;25.07;;;2.50;37.50;;;;;;10412926;28;20229;-71
2022/12/17 16:08:32;;;;;;;32.00;23.53;;;2.40;37.60;;;;;;10412895;28;20615;-72
2022/12/17 16:13:36;;;;;;;31.27;23.90;;;2.30;37.40;;;;;;10412663;28;20225;-71
2022/12/17 16:18:39;;;;;;;50.43;33.67;;;2.10;37.50;;;;;;10412452;28;20229;-71
2022/12/17 16:23:45;;;;;;;53.03;32.23;;;2.10;37.40;;;;;;10412226;28;20268;-71
2022/12/17 16:28:49;;;;;;;48.23;32.30;;;2.00;37.20;;;;;;10409026;28;20298;-71
2022/12/17 16:33:53;;;;;;;39.83;28.60;;;1.80;37.20;;;;;;10400394;28;20316;-70
2022/12/17 16:38:57;;;;;;;44.50;31.13;;;1.70;37.00;;;;;;10431508;28;20248;-69
2022/12/17 16:44:00;;;;;;;83.27;52.07;;;1.60;37.00;;;;;;10426759;28;20217;-71
2022/12/17 16:49:06;;;;;;;129.63;68.63;;;1.50;37.10;;;;;;10451697;28;20252;-71
2022/12/17 16:54:13;;;;;;;97.30;55.27;;;1.40;37.00;;;;;;10450944;28;20319;-70
2022/12/17 16:59:17;;;;;;;75.80;44.87;;;1.30;36.70;;;;;;10439540;28;20221;-70
2022/12/17 17:04:22;;;;;;;78.07;46.33;;;1.20;36.70;;;;;;10440990;28;20294;-71
2022/12/17 17:09:26;;;;;;;63.83;35.33;;;1.00;36.30;;;;;;10428308;28;20225;-72
2022/12/17 17:14:30;;;;;;;53.57;32.00;;;0.90;36.30;;;;;;10433381;28;20223;-70
2022/12/17 17:19:33;;;;;;;61.30;34.23;;;0.70;36.70;;;;;;10428530;28;20224;-71
2022/12/17 17:24:37;;;;;;;64.60;36.63;;;0.80;36.90;;;;;;10420848;28;20221;-71
2022/12/17 17:29:40;;;;;;;59.70;34.30;;;0.60;36.60;;;;;;10429978;28;20271;-71
2022/12/17 17:34:43;;;;;;;54.13;31.70;;;0.50;36.60;;;;;;10422419;28;20218;-71
2022/12/17 17:39:48;;;;;;;55.07;33.67;;;0.40;36.70;;;;;;10428747;28;20241;-70
2022/12/17 17:44:51;;;;;;;48.87;30.90;;;0.30;36.60;;;;;;10429104;28;20279;-71
2022/12/17 17:49:54;;;;;;;43.70;27.40;;;0.20;36.80;;;;;;10431150;28;20225;-72
2022/12/17 17:54:59;;;;;;;36.03;24.87;;;0.10;36.50;;;;;;10431609;28;20221;-72
2022/12/17 18:00:02;;;;;;;32.03;21.53;;;0.00;36.50;;;;;;10428010;28;20225;-72
2022/12/17 18:05:06;;;;;;;29.40;20.13;;;-0.20;36.70;;;;;;10430448;28;20351;-73
2022/12/17 18:10:11;;;;;;;31.67;20.97;;;-0.20;36.90;;;;;;10432328;28;20228;-73
2022/12/17 18:15:14;;;;;;;30.57;21.10;;;-0.30;37.00;;;;;;10423433;28;20692;-72
2022/12/17 18:20:21;;;;;;;28.23;20.63;;;-0.30;36.80;;;;;;10419332;28;20600;-72
2022/12/17 18:25:25;;;;;;;27.37;19.70;;;-0.40;36.50;;;;;;10422778;28;20279;-73
2022/12/17 18:30:28;;;;;;;29.93;21.20;;;-0.50;36.60;;;;;;10416805;28;20237;-72
2022/12/17 18:35:31;;;;;;;34.53;21.33;;;-0.50;36.70;;;;;;10418519;28;20225;-72
2022/12/17 18:40:36;;;;;;;35.13;22.50;;;-0.60;36.60;;;;;;10418968;28;20226;-72
2022/12/17 18:45:39;;;;;;;41.27;27.50;;;-0.70;36.50;;;;;;10419850;28;20229;-72
2022/12/17 18:50:46;;;;;;;43.27;28.30;;;-0.70;36.70;;;;;;10422054;28;20239;-72
2022/12/17 18:55:50;;;;;;;39.47;25.90;;;-0.80;36.50;;;;;;10425911;28;20221;-72
2022/12/17 19:00:53;;;;;;;37.73;24.93;;;-0.80;36.30;;;;;;10415384;28;20236;-72
2022/12/17 19:05:56;;;;;;;34.50;24.10;;;-0.90;36.40;;;;;;10420336;28;20229;-72
2022/12/17 19:11:18;;;;;;;34.67;23.27;;;-1.00;36.40;;;;;;10413659;28;20237;-72
2022/12/17 19:16:23;;;;;;;41.73;26.77;;;-1.10;35.60;;;;;;10415017;28;20232;-72
2022/12/17 19:21:27;;;;;;;43.43;25.63;;;-1.20;36.20;;;;;;10411726;28;20332;-72
2022/12/17 19:26:32;;;;;;;41.53;25.10;;;-1.30;36.30;;;;;;10428929;28;20274;-70
2022/12/17 19:31:37;;;;;;;38.80;25.00;;;-1.30;36.00;;;;;;10446119;28;20241;-71
2022/12/17 19:36:41;;;;;;;36.00;22.87;;;-1.40;36.20;;;;;;10446839;28;20282;-72
2022/12/17 19:41:46;;;;;;;33.23;22.17;;;-1.40;36.30;;;;;;10446393;28;20236;-73
2022/12/17 19:46:49;;;;;;;33.87;21.83;;;-1.50;36.30;;;;;;10446049;28;20239;-71
2022/12/17 19:51:52;;;;;;;36.00;22.20;;;-1.50;36.40;;;;;;10429905;28;20596;-71
2022/12/17 19:56:57;;;;;;;29.83;21.87;;;-1.60;36.30;;;;;;10443810;28;20229;-71
2022/12/17 20:02:02;;;;;;;33.97;22.47;;;-1.60;36.20;;;;;;10446457;28;20233;-72
2022/12/17 20:07:05;;;;;;;32.23;21.10;;;-1.70;36.00;;;;;;10437279;28;20237;-72
2022/12/17 20:12:10;;;;;;;39.23;24.67;;;-1.70;35.90;;;;;;10431418;28;20229;-73
2022/12/17 20:17:13;;;;;;;37.97;24.43;;;-1.80;35.80;;;;;;10445563;28;20224;-74
2022/12/17 20:22:16;;;;;;;41.80;27.97;;;-2.00;36.00;;;;;;10445841;28;20319;-72
2022/12/17 20:27:21;;;;;;;32.83;21.90;;;-2.10;35.90;;;;;;10447396;28;20232;-72
2022/12/17 20:32:24;;;;;;;38.20;24.03;;;-2.10;36.00;;;;;;10446971;28;20308;-72
2022/12/17 20:37:27;;;;;;;28.83;20.63;;;-2.20;36.10;;;;;;10450122;28;20221;-72
2022/12/17 20:42:32;;;;;;;36.93;22.93;;;-2.20;36.20;;;;;;10430905;28;20248;-71
2022/12/17 20:47:35;;;;;;;36.83;23.23;;;-2.20;36.10;;;;;;10428325;28;20564;-71
2022/12/17 20:52:38;;;;;;;34.97;21.67;;;-2.30;36.20;;;;;;10436663;28;20308;-70
2022/12/17 20:57:42;;;;;;;31.37;20.23;;;-2.30;36.30;;;;;;10451422;28;20228;-70
2022/12/17 21:02:46;;;;;;;29.47;19.40;;;-2.30;35.80;;;;;;10451614;28;20328;-70
2022/12/17 21:07:49;;;;;;;25.53;17.53;;;-2.40;35.80;;;;;;10452009;28;20224;-70
2022/12/17 21:18:14;;;;;;;30.90;18.87;;;-2.60;35.50;;;;;;10441618;28;20213;-71
2022/12/17 21:23:17;;;;;;;24.43;16.50;;;-2.70;35.50;;;;;;10441394;28;20240;-71
2022/12/17 21:28:22;;;;;;;26.33;15.87;;;-2.80;35.40;;;;;;10436572;28;20785;-70
2022/12/17 21:33:26;;;;;;;26.60;16.40;;;-3.00;35.40;;;;;;10436204;28;20259;-70
2022/12/17 21:38:30;;;;;;;27.07;16.67;;;-2.90;35.90;;;;;;10430177;28;20228;-71
2022/12/17 21:43:36;;;;;;;26.87;17.30;;;-3.00;36.00;;;;;;10430260;28;20792;-71
2022/12/17 21:48:41;;;;;;;28.77;16.57;;;-3.20;36.00;;;;;;10439094;28;20221;-70
2022/12/17 21:53:45;;;;;;;28.47;17.13;;;-3.20;36.00;;;;;;10434085;28;20249;-70
2022/12/17 21:58:50;;;;;;;25.07;16.33;;;-3.10;36.50;;;;;;10432044;28;20308;-70
2022/12/17 22:03:56;;;;;;;27.03;16.23;;;-3.10;36.80;;;;;;10429841;28;20232;-71
2022/12/17 22:09:00;;;;;;;26.27;16.63;;;-3.00;36.80;;;;;;10429973;28;20229;-71
2022/12/17 22:14:22;;;;;;;27.30;17.00;;;-3.00;36.90;;;;;;10428835;28;20300;-71
2022/12/17 22:19:25;;;;;;;23.33;15.07;;;-2.90;37.10;;;;;;10426991;28;20308;-70
2022/12/17 22:24:28;;;;;;;22.33;14.20;;;-2.90;37.40;;;;;;10425972;28;20229;-70
2022/12/17 22:35:00;;;;;;;21.43;12.50;;;-2.80;38.00;;;;;;10437873;28;20724;-71
2022/12/17 22:40:24;;;;;;;21.23;13.20;;;-2.70;38.30;;;;;;10439593;28;20248;-71
2022/12/17 22:45:48;;;;;;;23.17;13.63;;;-2.70;38.40;;;;;;10442980;28;20233;-71
2022/12/17 22:50:52;;;;;;;21.07;13.70;;;-2.60;38.60;;;;;;10442403;28;20708;-71
2022/12/17 22:56:09;;;;;;;22.87;14.50;;;-2.70;38.60;;;;;;10444570;28;20663;-70
2022/12/17 23:01:35;;;;;;;23.97;14.20;;;-2.60;38.70;;;;;;10445055;28;20300;-71
2022/12/17 23:06:38;;;;;;;24.17;14.00;;;-2.60;38.90;;;;;;10444921;28;20228;-71
2022/12/17 23:11:41;;;;;;;24.30;14.23;;;-2.60;39.00;;;;;;10444809;28;20229;-71
2022/12/17 23:16:46;;;;;;;23.10;14.47;;;-2.60;39.10;;;;;;10444631;28;20643;-71
2022/12/17 23:21:49;;;;;;;26.63;14.90;;;-2.50;39.30;;;;;;10444292;28;20521;-71
2022/12/17 23:26:53;;;;;;;22.13;14.10;;;-2.40;39.50;;;;;;10444153;28;20240;-71
2022/12/17 23:31:57;;;;;;;31.97;16.33;;;-2.40;39.40;;;;;;10444081;28;20581;-71
2022/12/17 23:37:01;;;;;;;24.93;15.13;;;-2.30;39.60;;;;;;10444196;28;20645;-71
2022/12/17 23:42:04;;;;;;;26.70;15.57;;;-2.20;39.70;;;;;;10444033;28;20232;-71
2022/12/17 23:47:08;;;;;;;26.63;15.87;;;-2.10;39.70;;;;;;10442775;28;20232;-71
2022/12/17 23:52:12;;;;;;;27.37;16.47;;;-2.00;39.90;;;;;;10443687;28;20743;-71
2022/12/17 23:57:15;;;;;;;27.47;15.60;;;-2.00;39.90;;;;;;10443815;28;20716;-71
